createdAt,value
2023-04-24T00:01:23.288Z,17.24
2023-04-24T00:03:50.284Z,17.71
2023-04-24T00:06:18.431Z,16.76
2023-04-24T00:08:45.422Z,17.53
2023-04-24T00:11:12.330Z,18.28
2023-04-24T00:13:39.746Z,17.72
2023-04-24T00:16:06.947Z,18.30
2023-04-24T00:18:33.985Z,18.44
2023-04-24T00:21:01.055Z,17.02
2023-04-24T00:23:27.923Z,16.56
2023-04-24T00:25:54.796Z,16.59
2023-04-24T00:28:21.664Z,17.34
2023-04-24T00:30:48.565Z,16.57
2023-04-24T00:33:15.982Z,17.09
2023-04-24T00:35:42.918Z,17.75
2023-04-24T00:38:09.783Z,17.55
2023-04-24T00:40:36.662Z,17.29
2023-04-24T00:43:03.575Z,17.19
2023-04-24T00:45:32.422Z,17.16
2023-04-24T00:47:59.500Z,16.40
2023-04-24T00:50:27.599Z,16.59
2023-04-24T00:52:54.513Z,15.45
2023-04-24T00:55:21.555Z,16.26
2023-04-24T00:57:48.910Z,16.52
2023-04-24T01:00:17.608Z,15.43
2023-04-24T01:02:47.572Z,14.64
2023-04-24T01:05:16.192Z,15.51
2023-04-24T01:07:46.606Z,15.61
2023-04-24T01:10:14.639Z,15.00
2023-04-24T01:12:41.688Z,15.31
2023-04-24T01:15:09.666Z,16.12
2023-04-24T01:17:37.132Z,15.42
2023-04-24T01:20:06.801Z,17.16
2023-04-24T01:22:36.529Z,17.24
2023-04-24T01:25:04.649Z,17.50
2023-04-24T01:27:31.709Z,17.06
2023-04-24T01:29:58.764Z,17.53
2023-04-24T01:32:26.522Z,17.50
2023-04-24T01:34:53.728Z,18.35
2023-04-24T01:37:20.673Z,16.56
2023-04-24T01:39:47.596Z,17.98
2023-04-24T01:42:15.833Z,17.85
2023-04-24T01:44:43.168Z,17.03
2023-04-24T01:47:10.224Z,17.84
2023-04-24T01:49:39.198Z,16.49
2023-04-24T01:52:06.302Z,17.06
2023-04-24T01:54:33.294Z,17.58
2023-04-24T01:57:02.205Z,17.07
2023-04-24T01:59:29.437Z,16.55
2023-04-24T02:01:56.346Z,17.16
2023-04-24T02:04:23.571Z,16.94
2023-04-24T02:06:50.524Z,17.18
2023-04-24T02:09:17.422Z,16.31
2023-04-24T02:11:44.304Z,16.34
2023-04-24T02:14:11.238Z,17.24
2023-04-24T02:16:38.122Z,17.05
2023-04-24T02:19:05.217Z,17.49
2023-04-24T02:21:32.321Z,16.94
2023-04-24T02:23:59.181Z,17.66
2023-04-24T02:26:26.221Z,17.44
2023-04-24T02:28:53.170Z,16.70
2023-04-24T02:31:20.056Z,16.51
2023-04-24T02:33:46.933Z,17.61
2023-04-24T02:36:14.492Z,16.81
2023-04-24T02:38:41.406Z,16.58
2023-04-24T02:41:08.405Z,16.91
2023-04-24T02:43:35.414Z,16.24
2023-04-24T02:46:02.497Z,16.55
2023-04-24T02:48:29.615Z,16.89
2023-04-24T02:50:56.564Z,17.42
2023-04-24T02:53:24.476Z,17.54
2023-04-24T02:55:51.425Z,17.68
2023-04-24T02:58:18.633Z,18.67
2023-04-24T03:00:45.732Z,18.09
2023-04-24T03:03:12.744Z,17.78
2023-04-24T03:05:39.829Z,17.76
2023-04-24T03:08:07.417Z,18.86
2023-04-24T03:10:34.290Z,19.02
2023-04-24T03:13:01.168Z,18.56
2023-04-24T03:15:28.186Z,18.31
2023-04-24T03:17:56.790Z,18.14
2023-04-24T03:20:24.076Z,17.74
2023-04-24T03:22:51.086Z,18.20
2023-04-24T03:25:17.991Z,18.06
2023-04-24T03:27:45.007Z,16.41
2023-04-24T03:30:12.068Z,16.30
2023-04-24T03:32:40.606Z,16.85
2023-04-24T03:35:09.490Z,15.58
2023-04-24T03:37:36.434Z,16.04
2023-04-24T03:40:03.712Z,16.48
2023-04-24T03:42:30.816Z,16.70
2023-04-24T03:44:57.675Z,16.87
2023-04-24T03:47:24.681Z,17.01
2023-04-24T03:49:51.605Z,17.27
2023-04-24T03:52:18.453Z,17.14
2023-04-24T03:54:45.436Z,17.66
2023-04-24T03:57:12.343Z,17.10
2023-04-24T03:59:39.240Z,17.86
2023-04-24T04:02:06.254Z,17.46
2023-04-24T04:04:33.364Z,17.92
2023-04-24T04:07:02.430Z,17.20
2023-04-24T04:09:29.551Z,16.41
2023-04-24T04:11:56.409Z,17.04
2023-04-24T04:14:24.388Z,17.30
2023-04-24T04:16:53.955Z,17.44
2023-04-24T04:19:21.769Z,17.75
2023-04-24T04:21:53.293Z,17.66
2023-04-24T04:24:21.959Z,17.20
2023-04-24T04:26:48.885Z,18.21
2023-04-24T04:29:18.472Z,17.45
2023-04-24T04:31:46.168Z,17.80
2023-04-24T04:34:13.798Z,18.53
2023-04-24T04:36:41.348Z,17.96
2023-04-24T04:39:08.741Z,18.63
2023-04-24T04:41:41.623Z,18.52
2023-04-24T04:44:10.016Z,19.15
2023-04-24T04:46:38.498Z,19.10
2023-04-24T04:49:05.790Z,19.11
2023-04-24T04:51:33.112Z,19.71
2023-04-24T04:53:59.938Z,19.58
2023-04-24T04:56:27.298Z,19.67
2023-04-24T04:58:54.358Z,19.36
2023-04-24T05:01:21.329Z,19.39
2023-04-24T05:03:48.284Z,19.47
2023-04-24T05:06:15.279Z,19.41
2023-04-24T05:08:42.180Z,19.44
2023-04-24T05:11:09.146Z,19.22
2023-04-24T05:13:40.950Z,19.41
2023-04-24T05:16:08.400Z,19.70
2023-04-24T05:18:35.442Z,19.41
2023-04-24T05:21:02.582Z,19.78
2023-04-24T05:23:29.555Z,19.87
2023-04-24T05:25:56.499Z,19.69
2023-04-24T05:28:23.505Z,19.88
2023-04-24T05:30:50.935Z,19.49
2023-04-24T05:33:17.814Z,20.79
2023-04-24T05:35:47.761Z,19.77
2023-04-24T05:38:15.483Z,19.92
2023-04-24T05:40:42.375Z,20.20
2023-04-24T05:43:09.242Z,20.14
2023-04-24T05:45:37.231Z,21.23
2023-04-24T05:48:04.843Z,20.93
2023-04-24T05:50:31.812Z,21.18
2023-04-24T05:53:03.382Z,20.60
2023-04-24T05:55:31.665Z,20.94
2023-04-24T05:57:58.686Z,21.02
2023-04-24T06:00:26.035Z,20.49
2023-04-24T06:02:54.318Z,20.07
2023-04-24T06:05:21.699Z,20.27
2023-04-24T06:07:49.264Z,18.52
2023-04-24T06:10:16.633Z,18.68
2023-04-24T06:12:43.612Z,19.70
2023-04-24T06:15:11.003Z,19.97
2023-04-24T06:17:37.998Z,21.02
2023-04-24T06:20:06.849Z,21.31
2023-04-24T06:22:33.891Z,21.48
2023-04-24T06:25:01.869Z,22.03
2023-04-24T06:27:28.716Z,21.70
2023-04-24T06:29:56.464Z,21.73
2023-04-24T06:32:26.717Z,21.51
2023-04-24T06:34:54.057Z,22.09
2023-04-24T06:37:24.131Z,22.07
2023-04-24T06:39:52.024Z,22.38
2023-04-24T06:42:18.934Z,21.85
2023-04-24T06:44:46.425Z,21.11
2023-04-24T06:47:14.811Z,20.33
2023-04-24T06:49:42.117Z,20.27
2023-04-24T06:52:09.452Z,20.09
2023-04-24T06:54:36.335Z,20.29
2023-04-24T06:57:04.278Z,20.53
2023-04-24T06:59:31.560Z,20.78
2023-04-24T07:01:58.827Z,20.30
2023-04-24T07:04:26.677Z,20.09
2023-04-24T07:06:56.998Z,20.05
2023-04-24T07:09:42.840Z,19.51
2023-04-24T07:12:11.847Z,20.12
2023-04-24T07:14:41.076Z,19.98
2023-04-24T07:17:07.952Z,19.99
2023-04-24T07:19:52.934Z,20.14
2023-04-24T07:22:19.812Z,19.53
2023-04-24T07:24:46.786Z,19.60
2023-04-24T07:27:16.032Z,19.88
2023-04-24T07:29:43.449Z,19.78
2023-04-24T07:32:10.540Z,19.99
2023-04-24T07:34:37.549Z,20.26
2023-04-24T07:37:04.484Z,20.20
2023-04-24T07:39:31.388Z,20.44
2023-04-24T07:42:00.226Z,20.75
2023-04-24T07:44:27.495Z,20.21
2023-04-24T07:46:54.789Z,20.12
2023-04-24T07:49:21.985Z,20.08
2023-04-24T07:51:48.937Z,19.79
2023-04-24T07:54:16.010Z,19.86
2023-04-24T07:56:44.172Z,20.40
2023-04-24T07:59:31.229Z,20.77
2023-04-24T08:01:58.168Z,20.64
2023-04-24T08:04:25.245Z,21.07
2023-04-24T08:06:52.283Z,20.86
2023-04-24T08:09:19.196Z,21.00
2023-04-24T08:11:46.314Z,21.33
2023-04-24T08:14:14.460Z,21.11
2023-04-24T08:16:41.551Z,21.42
2023-04-24T08:19:09.648Z,21.02
2023-04-24T08:21:36.513Z,21.42
2023-04-24T08:24:06.345Z,21.22
2023-04-24T08:26:33.270Z,21.56
2023-04-24T08:29:01.216Z,22.11
2023-04-24T08:31:28.255Z,22.23
2023-04-24T08:33:55.345Z,22.31
2023-04-24T08:36:28.260Z,21.83
2023-04-24T08:39:08.329Z,21.32
2023-04-24T08:41:35.912Z,21.70
2023-04-24T08:44:03.550Z,21.75
2023-04-24T08:46:31.808Z,21.56
2023-04-24T08:48:59.194Z,21.81
2023-04-24T08:51:27.531Z,21.92
2023-04-24T08:53:56.108Z,21.64
2023-04-24T08:56:24.575Z,22.03
2023-04-24T08:58:52.837Z,22.15
2023-04-24T09:01:21.139Z,22.06
2023-04-24T09:03:50.967Z,22.47
2023-04-24T09:06:19.367Z,22.80
2023-04-24T09:08:47.169Z,22.73
2023-04-24T09:11:14.046Z,22.62
2023-04-24T09:13:41.027Z,22.12
2023-04-24T09:16:07.959Z,22.28
2023-04-24T09:18:36.382Z,22.23
2023-04-24T09:21:06.093Z,21.97
2023-04-24T09:23:33.393Z,22.18
2023-04-24T09:26:01.559Z,22.06
2023-04-24T09:28:36.625Z,22.11
2023-04-24T09:31:09.344Z,22.29
2023-04-24T09:33:36.764Z,22.20
2023-04-24T09:36:04.229Z,22.03
2023-04-24T09:38:35.661Z,21.91
2023-04-24T09:41:14.879Z,21.55
2023-04-24T09:43:41.779Z,21.86
2023-04-24T09:46:10.767Z,21.75
2023-04-24T09:48:38.994Z,21.81
2023-04-24T09:51:08.347Z,22.04
2023-04-24T09:53:35.197Z,21.77
2023-04-24T09:56:09.432Z,22.16
2023-04-24T09:58:37.359Z,22.08
2023-04-24T10:01:04.673Z,22.89
2023-04-24T10:03:32.851Z,23.22
2023-04-24T10:06:03.404Z,22.89
2023-04-24T10:08:37.351Z,22.32
2023-04-24T10:11:04.415Z,22.40
2023-04-24T10:13:31.821Z,22.30
2023-04-24T10:16:00.378Z,22.21
2023-04-24T10:18:27.824Z,22.19
2023-04-24T10:20:56.158Z,22.77
2023-04-24T10:23:24.337Z,22.25
2023-04-24T10:25:52.388Z,22.28
2023-04-24T10:28:20.655Z,21.97
2023-04-24T10:30:47.985Z,21.44
2023-04-24T10:33:15.363Z,21.30
2023-04-24T10:35:44.161Z,21.24
2023-04-24T10:38:14.259Z,20.88
2023-04-24T10:40:41.508Z,20.70
2023-04-24T10:43:12.067Z,20.84
2023-04-24T10:45:40.544Z,21.05
2023-04-24T10:48:12.490Z,20.88
2023-04-24T10:50:48.224Z,20.78
2023-04-24T10:53:24.413Z,21.11
2023-04-24T10:55:52.443Z,20.74
2023-04-24T10:58:26.284Z,20.63
2023-04-24T11:01:00.957Z,20.73
2023-04-24T11:03:30.165Z,20.25
2023-04-24T11:05:59.880Z,20.27
2023-04-24T11:08:31.709Z,20.32
2023-04-24T11:11:11.035Z,20.44
2023-04-24T11:13:57.082Z,20.09
2023-04-24T11:16:35.851Z,20.36
2023-04-24T11:19:18.228Z,20.15
2023-04-24T11:21:48.744Z,20.51
2023-04-24T11:24:39.457Z,20.65
2023-04-24T11:27:11.108Z,20.82
2023-04-24T11:29:46.598Z,21.11
2023-04-24T11:32:26.010Z,20.66
2023-04-24T11:34:55.818Z,20.26
2023-04-24T11:37:24.641Z,20.60
2023-04-24T11:39:53.158Z,20.72
2023-04-24T11:42:21.169Z,20.58
2023-04-24T11:44:48.819Z,19.82
2023-04-24T11:47:15.759Z,20.13
2023-04-24T11:49:42.820Z,20.29
2023-04-24T11:52:09.725Z,20.38
2023-04-24T11:54:36.594Z,20.32
2023-04-24T11:57:07.769Z,20.47
2023-04-24T11:59:39.076Z,20.80
2023-04-24T12:02:07.215Z,20.92
2023-04-24T12:04:42.537Z,21.31
2023-04-24T12:07:09.884Z,21.66
2023-04-24T12:09:48.026Z,22.10
2023-04-24T12:12:16.733Z,22.10
2023-04-24T12:14:49.594Z,22.66
2023-04-24T12:17:17.760Z,22.87
2023-04-24T12:19:48.967Z,22.40
2023-04-24T12:22:16.201Z,21.84
2023-04-24T12:25:06.231Z,22.30
2023-04-24T12:27:36.413Z,21.78
2023-04-24T12:30:06.137Z,21.23
2023-04-24T12:32:33.412Z,20.95
2023-04-24T12:35:00.375Z,21.69
2023-04-24T12:37:28.049Z,22.31
2023-04-24T12:40:09.620Z,20.96
2023-04-24T12:42:37.588Z,20.64
2023-04-24T12:45:06.910Z,20.84
2023-04-24T12:47:34.822Z,20.28
2023-04-24T12:50:02.360Z,20.75
2023-04-24T12:52:30.771Z,20.44
2023-04-24T12:54:59.625Z,19.89
2023-04-24T12:57:28.010Z,19.56
2023-04-24T12:59:59.634Z,19.30
2023-04-24T13:02:28.859Z,18.60
2023-04-24T13:04:56.068Z,19.53
2023-04-24T13:07:22.954Z,19.22
2023-04-24T13:09:51.003Z,18.59
2023-04-24T13:12:18.284Z,19.15
2023-04-24T13:14:46.667Z,19.34
2023-04-24T13:17:14.195Z,19.12
2023-04-24T13:19:42.814Z,17.92
2023-04-24T13:22:11.326Z,17.16
2023-04-24T13:24:39.820Z,16.33
2023-04-24T13:27:07.066Z,16.34
2023-04-24T13:29:33.988Z,16.22
2023-04-24T13:32:01.285Z,16.42
2023-04-24T13:34:28.461Z,16.06
2023-04-24T13:36:57.143Z,15.61
2023-04-24T13:39:25.121Z,15.27
2023-04-24T13:41:52.099Z,14.10
2023-04-24T13:44:20.274Z,14.03
2023-04-24T13:46:48.657Z,13.86
2023-04-24T13:49:16.367Z,13.60
2023-04-24T13:51:43.935Z,13.38
2023-04-24T13:54:10.886Z,13.45
2023-04-24T13:56:37.797Z,14.05
2023-04-24T13:59:04.718Z,14.65
2023-04-24T14:01:32.059Z,14.14
2023-04-24T14:03:59.184Z,14.72
2023-04-24T14:06:26.979Z,14.80
2023-04-24T14:08:53.887Z,15.94
2023-04-24T14:11:21.129Z,16.41
2023-04-24T14:13:49.131Z,15.96
2023-04-24T14:16:16.153Z,16.20
2023-04-24T14:18:43.028Z,16.54
2023-04-24T14:21:09.911Z,16.75
2023-04-24T14:23:36.773Z,16.83
2023-04-24T14:26:03.846Z,17.94
2023-04-24T14:28:30.690Z,17.49
2023-04-24T14:30:57.672Z,17.53
2023-04-24T14:33:24.569Z,18.07
2023-04-24T14:35:51.426Z,17.50
2023-04-24T14:38:18.413Z,17.48
2023-04-24T14:41:05.375Z,16.97
2023-04-24T14:43:32.177Z,17.71
2023-04-24T14:45:59.118Z,17.88
2023-04-24T14:48:27.976Z,18.39
2023-04-24T14:50:54.885Z,18.94
2023-04-24T14:53:22.260Z,18.58
2023-04-24T14:55:49.167Z,18.69
2023-04-24T14:58:20.174Z,18.65
2023-04-24T15:00:47.052Z,19.14
2023-04-24T15:03:14.106Z,18.93
2023-04-24T15:05:41.255Z,19.29
2023-04-24T15:08:50.625Z,18.62
2023-04-24T15:11:18.210Z,16.92
2023-04-24T15:13:46.915Z,17.58
2023-04-24T15:16:14.305Z,18.04
2023-04-24T15:18:54.498Z,18.35
2023-04-24T15:21:21.542Z,18.61
2023-04-24T15:23:48.741Z,18.24
2023-04-24T15:26:16.052Z,18.69
2023-04-24T15:32:24.117Z,17.40
2023-04-24T15:34:56.866Z,17.38
2023-04-24T15:37:32.126Z,17.18
2023-04-24T15:40:14.349Z,16.57
2023-04-24T15:42:41.828Z,17.21
2023-04-24T15:45:09.554Z,17.34
2023-04-24T15:47:36.635Z,17.53
2023-04-24T15:53:32.299Z,18.03
2023-04-24T15:55:59.224Z,18.61
2023-04-24T16:02:09.794Z,18.15
2023-04-24T16:04:36.860Z,16.95
2023-04-24T16:07:03.938Z,17.46
2023-04-24T16:10:19.990Z,17.36
2023-04-24T16:12:46.947Z,16.74
2023-04-24T16:15:13.825Z,16.82
2023-04-24T16:17:40.794Z,16.92
2023-04-24T16:20:08.261Z,16.56
2023-04-24T16:22:35.224Z,17.00
2023-04-24T16:25:02.447Z,17.01
2023-04-24T16:27:29.341Z,15.43
2023-04-24T16:30:30.349Z,15.37
2023-04-24T16:32:57.354Z,15.72
2023-04-24T16:35:24.260Z,15.22
2023-04-24T16:44:24.711Z,16.30
2023-04-24T16:46:52.105Z,16.66
2023-04-24T16:50:14.239Z,17.40
2023-04-24T16:52:41.162Z,16.66
2023-04-24T16:55:09.115Z,16.81
2023-04-24T16:57:35.974Z,16.05
2023-04-24T17:00:23.300Z,15.99
2023-04-24T17:02:50.676Z,15.91
2023-04-24T17:05:19.522Z,15.09
2023-04-24T17:07:46.390Z,15.66
2023-04-24T17:10:13.263Z,16.63
2023-04-24T17:12:40.173Z,15.38
2023-04-24T17:15:07.609Z,15.48
2023-04-24T17:17:34.555Z,15.85
2023-04-24T17:20:32.752Z,15.96
2023-04-24T17:22:59.920Z,15.83
2023-04-24T17:25:26.820Z,15.13
2023-04-24T17:28:16.589Z,14.59
2023-04-24T17:30:43.469Z,14.91
2023-04-24T17:33:10.356Z,15.54
2023-04-24T17:35:37.318Z,14.96
2023-04-24T17:38:42.074Z,16.25
2023-04-24T17:41:09.057Z,15.59
2023-04-24T17:43:35.992Z,15.22
2023-04-24T17:46:02.893Z,15.71
2023-04-24T17:48:32.964Z,15.15
2023-04-24T17:50:59.863Z,14.95
2023-04-24T17:53:26.731Z,14.64
2023-04-24T17:55:54.552Z,14.30
2023-04-24T18:01:24.737Z,15.00
2023-04-24T18:03:51.837Z,14.39
2023-04-24T18:06:19.465Z,14.25
2023-04-24T18:08:46.661Z,14.03
2023-04-24T18:11:13.700Z,14.21
2023-04-24T18:13:43.181Z,14.01
2023-04-24T18:16:10.114Z,14.08
2023-04-24T18:18:58.904Z,13.75
2023-04-24T18:21:25.823Z,13.88
2023-04-24T18:23:52.764Z,14.00
2023-04-24T18:26:19.654Z,14.04
2023-04-24T18:29:23.662Z,13.87
2023-04-24T18:31:50.793Z,14.12
2023-04-24T18:34:17.805Z,14.28
2023-04-24T18:36:44.702Z,13.73
2023-04-24T18:39:14.127Z,13.95
2023-04-24T18:41:41.004Z,13.62
2023-04-24T18:44:07.924Z,13.61
2023-04-24T18:46:38.072Z,12.98
2023-04-24T18:49:12.063Z,13.78
2023-04-24T18:51:52.582Z,14.06
2023-04-24T18:54:21.056Z,13.67
2023-04-24T18:56:47.983Z,14.13
2023-04-24T18:59:15.964Z,13.61
2023-04-24T19:01:42.925Z,14.14
2023-04-24T19:04:09.884Z,13.63
2023-04-24T19:06:36.757Z,13.39
2023-04-24T19:12:32.268Z,13.66
2023-04-24T19:15:00.344Z,13.62
2023-04-24T19:17:27.446Z,13.58
2023-04-24T19:19:56.323Z,13.41
2023-04-24T19:22:23.578Z,13.67
2023-04-24T19:24:50.398Z,13.12
2023-04-24T19:27:17.126Z,13.43
2023-04-24T19:29:57.198Z,13.58
2023-04-24T19:32:24.215Z,13.42
2023-04-24T19:34:51.321Z,12.69
2023-04-24T19:37:18.224Z,13.57
2023-04-24T19:40:08.853Z,13.39
2023-04-24T19:42:43.308Z,13.41
2023-04-24T19:45:14.841Z,13.78
2023-04-24T19:47:41.849Z,13.58
2023-04-24T19:50:09.813Z,13.38
2023-04-24T19:52:36.684Z,13.07
2023-04-24T19:55:03.963Z,13.28
2023-04-24T19:57:31.302Z,13.11
2023-04-24T20:03:25.521Z,13.26
2023-04-24T20:05:59.398Z,12.94
2023-04-24T20:08:34.042Z,12.73
2023-04-24T20:11:01.262Z,13.17
2023-04-24T20:13:28.340Z,13.53
2023-04-24T20:15:55.335Z,13.10
2023-04-24T20:19:09.251Z,13.56
2023-04-24T20:21:36.357Z,13.11
2023-04-24T20:24:04.530Z,13.21
2023-04-24T20:26:31.482Z,13.29
2023-04-24T20:29:27.575Z,13.15
2023-04-24T20:31:54.642Z,13.32
2023-04-24T20:34:22.192Z,13.74
2023-04-24T20:36:49.842Z,13.27
2023-04-24T20:39:19.860Z,13.48
2023-04-24T20:41:47.697Z,13.50
2023-04-24T20:44:14.564Z,13.39
2023-04-24T20:46:41.494Z,13.36
2023-04-24T20:49:49.363Z,13.31
2023-04-24T20:52:16.476Z,12.78
2023-04-24T20:54:43.342Z,12.57
2023-04-24T20:57:10.624Z,12.88
2023-04-24T20:59:39.669Z,12.84
2023-04-24T21:02:06.831Z,12.95
2023-04-24T21:04:37.602Z,13.06
2023-04-24T21:07:04.705Z,13.09
2023-04-24T21:09:35.718Z,13.40
2023-04-24T21:12:03.019Z,13.39
2023-04-24T21:14:29.851Z,13.03
2023-04-24T21:16:58.563Z,13.29
2023-04-24T21:19:31.556Z,13.36
2023-04-24T21:21:58.429Z,12.29
2023-04-24T21:24:25.302Z,13.02
2023-04-24T21:26:52.190Z,12.97
2023-04-24T21:32:47.079Z,13.03
2023-04-24T21:35:13.958Z,13.06
2023-04-24T21:37:41.173Z,12.34
2023-04-24T21:40:10.996Z,12.35
2023-04-24T21:42:38.846Z,13.31
2023-04-24T21:45:06.577Z,13.39
2023-04-24T21:47:33.517Z,12.90
2023-04-24T21:50:08.124Z,12.85
2023-04-24T21:52:34.952Z,13.35
2023-04-24T21:55:01.625Z,12.84
2023-04-24T21:57:29.510Z,13.00
2023-04-24T22:00:20.254Z,13.09
2023-04-24T22:02:47.467Z,12.80
2023-04-24T22:05:17.537Z,13.07
2023-04-24T22:07:45.154Z,13.08
2023-04-24T22:10:16.247Z,12.19
2023-04-24T22:12:43.986Z,12.74
2023-04-24T22:15:10.982Z,12.54
2023-04-24T22:17:39.126Z,12.85
2023-04-24T22:20:07.581Z,12.94
2023-04-24T22:22:35.470Z,12.75
2023-04-24T22:25:02.332Z,12.62
2023-04-24T22:27:29.221Z,13.31
2023-04-24T22:33:13.908Z,12.95
2023-04-24T22:35:40.752Z,12.81
2023-04-24T22:38:24.101Z,12.71
2023-04-24T22:40:51.072Z,12.60
2023-04-24T22:43:17.960Z,12.91
2023-04-24T22:45:44.869Z,12.80
2023-04-24T22:48:30.660Z,12.41
2023-04-24T22:50:57.545Z,12.52
2023-04-24T22:53:24.478Z,12.84
2023-04-24T22:55:51.421Z,12.74
2023-04-24T22:58:18.328Z,12.71
2023-04-24T23:00:45.204Z,12.95
2023-04-24T23:03:12.303Z,12.97
2023-04-24T23:05:39.287Z,12.61
2023-04-24T23:08:38.096Z,13.24
2023-04-24T23:11:04.997Z,13.04
2023-04-24T23:13:31.944Z,12.99
2023-04-24T23:15:58.820Z,12.86
2023-04-24T23:18:26.732Z,12.75
2023-04-24T23:20:53.760Z,12.89
2023-04-24T23:23:20.601Z,12.93
2023-04-24T23:25:47.281Z,12.95
2023-04-24T23:28:42.676Z,13.15
2023-04-24T23:31:09.566Z,13.21
2023-04-24T23:33:36.465Z,13.15
2023-04-24T23:36:03.465Z,13.14
2023-04-24T23:38:36.726Z,12.66
2023-04-24T23:41:13.796Z,12.74
2023-04-24T23:43:40.683Z,12.67
2023-04-24T23:46:07.588Z,12.93
2023-04-24T23:49:07.655Z,13.18
2023-04-24T23:51:34.538Z,12.28
2023-04-24T23:54:01.546Z,12.66
2023-04-24T23:56:29.422Z,12.81
2023-04-24T23:59:06.177Z,12.33
